CheckWX is a tool to help pilots better visualize weather data.  It is not intended as a substitute for an official pre-flight weather briefing.

17:35:26 UTC

SBPV TAF
Governador Jorge Teixeira de Oliveira Airport
Porto Velho, Brazil
TAF SBPV 180930Z 1812/1912 16005KT CAVOK TX34/1817Z TN23/1908Z BECMG 1812/1814 14005KT BECMG 1816/1818 16005KT BECMG 1906/1908 36005 KT BECMG 1909/1911 16005KT RMK PGW

Jun-18@
12:00 UTC

Jun-18 @ 12:00 UTC

Jun-19@
12:00 UTC

Jun-19 @ 12:00 UTC

TAF SBPV 180930Z 1812/1912 16005KT CAVOK TX34/1817Z TN23/1908Z
Wind
  • 160° at 5 KTS
Cloud Levels
  • No significant clouds

Jun-18@
12:00 UTC

Jun-18 @ 12:00 UTC

Jun-18@
16:00 UTC

Jun-18 @ 16:00 UTC

BECMG 1812/1814 14005KT

Expired

Wind
  • 140° at 5 KTS
Cloud Levels
  • No significant clouds

Jun-18@
16:00 UTC

Jun-18 @ 16:00 UTC

Jun-19@
06:00 UTC

Jun-19 @ 06:00 UTC

BECMG 1816/1818 16005KT

Becoming

Becoming Conditions expected by Tue, Jun 18, 2019 @ 18:00 UTC

Wind
  • 160° at 5 KTS
Cloud Levels
  • No significant clouds

Jun-19@
06:00 UTC

Jun-19 @ 06:00 UTC

Jun-19@
09:00 UTC

Jun-19 @ 09:00 UTC

BECMG 1906/1908 36005 KT

Becoming

Becoming Conditions expected by Wed, Jun 19, 2019 @ 08:00 UTC

Wind
  • 360° at 5 KTS
Cloud Levels
  • No significant clouds

Jun-19@
09:00 UTC

Jun-19 @ 09:00 UTC

Jun-19@
12:00 UTC

Jun-19 @ 12:00 UTC

BECMG 1909/1911 16005KT RMK PGW

Becoming

Becoming Conditions expected by Wed, Jun 19, 2019 @ 11:00 UTC

Wind
  • 160° at 5 KTS
Cloud Levels
  • No significant clouds